Aviation Digital Data Service (ADDS)

Output produced by METARs form (1708 UTC 24 April 2017)
found at http://www.aviationweather.gov/adds/metars/
 
TAF HADR 232130Z 2400/2506 16008KT 9999 SCT040 FEW080 
     BECMG 22010KT 8000 HZ SCT030 SCT080
       
HAAB 241700Z 36008KT 9000 FEW024 CB BKN025 SCT070 18/10 Q1025
TAF HAAB 240330Z 2406/2512 12010KT 9999 SCT040 FEW080 
     BECMG 2412/2415 12012KT 9999 SCT030 SCT080